Time;durP1;ratioP1;P1;durP2;ratioP2;P2;SDS_P1;SDS_P2;PMS_P1;PMS_P2;Temp;Humidity;BMP_temperature;BMP_pressure;BME280_temperature;BME280_humidity;BME280_pressure;Samples;Min_cycle;Max_cycle;Signal;HPM_P1;HPM_P2
2022/12/02 00:01:00;;;;;;;30.33;12.90;;;;;;;7.07;99.87;100635.31;5027204;28;20072;-68
2022/12/02 00:03:26;;;;;;;32.28;12.90;;;;;;;7.09;98.53;100633.53;5022270;28;20045;-68
2022/12/02 00:05:56;;;;;;;34.70;14.13;;;;;;;7.09;98.28;100628.25;5012292;28;20022;-68
2022/12/02 00:08:29;;;;;;;32.80;13.73;;;;;;;7.11;98.37;100636.16;5014526;28;20029;-68
2022/12/02 00:10:56;;;;;;;32.70;13.27;;;;;;;7.12;98.28;100627.31;5011903;28;20049;-69
2022/12/02 00:13:22;;;;;;;32.70;12.82;;;;;;;7.06;98.23;100633.56;5011979;28;20481;-68
2022/12/02 00:15:51;;;;;;;31.00;13.60;;;;;;;6.97;97.84;100612.47;5012157;28;20025;-68
2022/12/02 00:18:17;;;;;;;28.80;12.70;;;;;;;7.05;97.73;100631.78;5011733;28;20022;-68
2022/12/02 00:20:43;;;;;;;32.55;13.90;;;;;;;6.99;97.54;100621.28;5011296;28;20037;-68
2022/12/02 00:23:09;;;;;;;30.42;13.02;;;;;;;7.03;97.62;100617.72;5011185;28;20709;-68
2022/12/02 00:25:35;;;;;;;38.25;14.75;;;;;;;7.08;97.60;100621.22;5018325;28;20029;-68
2022/12/02 00:28:01;;;;;;;33.88;13.65;;;;;;;7.10;98.00;100610.63;5031582;28;20755;-68
2022/12/02 00:30:27;;;;;;;29.00;12.52;;;;;;;7.14;97.88;100607.91;5029364;28;20034;-68
2022/12/02 00:32:52;;;;;;;26.42;12.82;;;;;;;7.12;97.25;100603.50;5016989;28;20044;-68
2022/12/02 00:35:18;;;;;;;30.58;12.07;;;;;;;7.12;97.62;100600.88;5032018;28;20112;-68
2022/12/02 00:37:44;;;;;;;28.27;13.48;;;;;;;7.17;97.81;100599.94;5030688;28;20023;-68
2022/12/02 00:40:10;;;;;;;37.33;14.20;;;;;;;7.18;97.61;100600.84;5023936;28;20478;-68
2022/12/02 00:42:36;;;;;;;30.33;11.55;;;;;;;7.19;97.41;100595.53;5012258;28;20079;-68
2022/12/02 00:47:45;;;;;;;34.13;13.27;;;;;;;7.22;97.89;100586.66;5020174;28;20456;-68
2022/12/02 00:50:11;;;;;;;29.35;12.77;;;;;;;7.26;98.19;100589.28;5032018;28;20025;-68
2022/12/02 00:52:36;;;;;;;30.58;11.68;;;;;;;7.22;97.79;100584.91;5028561;28;20045;-68
2022/12/02 00:55:03;;;;;;;36.88;13.75;;;;;;;7.13;98.14;100582.38;5032025;28;20033;-68
2022/12/02 00:57:28;;;;;;;30.60;14.05;;;;;;;7.16;98.35;100574.41;5029863;28;20029;-68
2022/12/02 00:59:54;;;;;;;36.70;14.45;;;;;;;7.13;98.28;100581.47;5031958;28;20473;-68
2022/12/02 01:02:19;;;;;;;39.55;12.82;;;;;;;7.01;98.01;100556.03;5031879;28;20056;-68
2022/12/02 01:04:44;;;;;;;35.72;13.25;;;;;;;7.09;98.21;100572.69;5030700;28;20069;-68
2022/12/02 01:07:10;;;;;;;31.48;13.68;;;;;;;7.11;98.58;100573.56;5024044;28;20034;-68
2022/12/02 01:09:35;;;;;;;34.00;13.35;;;;;;;7.18;98.01;100564.66;5031361;28;20087;-69
2022/12/02 01:12:01;;;;;;;31.33;12.98;;;;;;;7.23;98.44;100576.06;5030913;28;20021;-68
2022/12/02 01:14:26;;;;;;;30.77;12.80;;;;;;;7.15;98.12;100551.47;5028005;28;20017;-68
2022/12/02 01:16:52;;;;;;;33.05;13.38;;;;;;;7.15;99.10;100577.91;5011281;28;20046;-68
2022/12/02 01:19:17;;;;;;;37.85;12.20;;;;;;;7.20;98.62;100584.03;5011179;28;20056;-69
2022/12/02 01:21:43;;;;;;;35.42;14.57;;;;;;;7.22;98.99;100581.38;5013157;28;20433;-68
2022/12/02 01:24:08;;;;;;;33.00;13.68;;;;;;;7.06;98.97;100556.88;5010888;28;20617;-69
2022/12/02 01:26:33;;;;;;;36.30;12.68;;;;;;;7.16;98.71;100571.75;5025731;28;20026;-68
2022/12/02 01:28:59;;;;;;;36.40;13.75;;;;;;;6.96;99.32;100576.34;5011808;28;20021;-68
2022/12/02 01:31:25;;;;;;;33.97;14.15;;;;;;;6.85;100.00;100559.72;5031303;28;20033;-68
2022/12/02 01:33:50;;;;;;;28.40;12.50;;;;;;;6.86;99.56;100569.38;5031193;28;20101;-68
2022/12/02 01:36:15;;;;;;;35.25;15.13;;;;;;;6.86;100.00;100571.16;5026924;28;20083;-68
2022/12/02 01:38:41;;;;;;;34.40;14.23;;;;;;;6.99;100.00;100573.66;5030892;28;20128;-68
2022/12/02 01:41:07;;;;;;;37.80;13.65;;;;;;;7.09;99.82;100564.75;5025387;28;20101;-68
2022/12/02 01:43:32;;;;;;;36.03;13.48;;;;;;;7.10;99.90;100563.84;5011308;28;20040;-68
2022/12/02 01:45:58;;;;;;;35.25;14.07;;;;;;;7.12;99.97;100566.47;5013700;28;20036;-68
2022/12/02 01:48:24;;;;;;;33.00;12.95;;;;;;;7.07;100.00;100553.31;5011372;28;20075;-68
2022/12/02 01:50:50;;;;;;;39.03;15.10;;;;;;;7.14;100.00;100576.19;5011335;28;20025;-68
2022/12/02 01:53:16;;;;;;;35.63;14.90;;;;;;;7.16;100.00;100570.88;5011106;28;20485;-68
2022/12/02 01:55:41;;;;;;;32.40;15.10;;;;;;;7.16;100.00;100571.75;5013526;28;20382;-68
2022/12/02 01:58:10;;;;;;;35.33;13.60;;;;;;;7.18;100.00;100564.66;5011392;28;20075;-69
2022/12/02 02:00:39;;;;;;;34.78;13.18;;;;;;;7.14;99.71;100570.00;5030344;28;20021;-68
2022/12/02 02:03:05;;;;;;;41.53;16.20;;;;;;;7.11;100.00;100564.75;5030095;28;20048;-68
2022/12/02 02:05:33;;;;;;;40.15;15.52;;;;;;;6.99;99.81;100560.44;5016038;28;20034;-68
2022/12/02 02:08:05;;;;;;;35.08;15.02;;;;;;;7.05;100.00;100557.72;5011049;28;20061;-68
2022/12/02 02:10:31;;;;;;;33.83;13.25;;;;;;;7.02;100.00;100547.19;5009642;28;20021;-68
2022/12/02 02:12:57;;;;;;;34.28;13.02;;;;;;;7.12;100.00;100550.63;5011248;28;20030;-68
2022/12/02 02:15:23;;;;;;;34.70;14.75;;;;;;;7.01;100.00;100547.22;5012977;28;20041;-68
2022/12/02 02:17:49;;;;;;;40.95;14.88;;;;;;;7.11;100.00;100552.41;5011207;28;20022;-68
2022/12/02 02:20:20;;;;;;;34.95;13.13;;;;;;;7.13;100.00;100550.63;5014237;28;20105;-68
2022/12/02 02:23:06;;;;;;;32.25;14.55;;;;;;;7.11;100.00;100541.81;5017068;28;20044;-68
2022/12/02 02:25:48;;;;;;;43.38;14.50;;;;;;;7.12;100.00;100538.28;5007489;28;20076;-68
2022/12/02 02:28:14;;;;;;;36.75;15.15;;;;;;;7.13;100.00;100542.69;5017264;28;20076;-68
2022/12/02 02:30:40;;;;;;;35.40;13.38;;;;;;;7.07;100.00;100524.22;5014694;28;20470;-68
2022/12/02 02:33:08;;;;;;;43.00;15.85;;;;;;;6.98;100.00;100526.97;5018115;28;20029;-69
2022/12/02 02:35:35;;;;;;;35.17;13.38;;;;;;;7.07;100.00;100534.81;5028184;28;20107;-69
2022/12/02 02:38:01;;;;;;;39.88;14.13;;;;;;;7.10;100.00;100534.75;5033924;28;20061;-68
2022/12/02 02:40:28;;;;;;;37.60;15.63;;;;;;;7.06;100.00;100541.00;5021824;28;20477;-68
2022/12/02 02:42:59;;;;;;;36.13;13.38;;;;;;;7.02;100.00;100520.75;5013960;28;20117;-68
2022/12/02 02:45:27;;;;;;;35.00;13.02;;;;;;;7.12;100.00;100543.56;5013716;28;20137;-67
2022/12/02 02:47:54;;;;;;;30.92;15.32;;;;;;;7.04;100.00;100531.31;5024301;28;20033;-68
2022/12/02 02:50:21;;;;;;;38.60;14.85;;;;;;;7.05;100.00;100533.94;5031137;28;20024;-68
2022/12/02 02:52:47;;;;;;;32.45;12.50;;;;;;;7.01;100.00;100513.72;5030951;28;20034;-67
2022/12/02 02:55:18;;;;;;;33.03;13.57;;;;;;;7.10;100.00;100518.88;5034296;28;20075;-67
2022/12/02 02:57:44;;;;;;;37.60;14.95;;;;;;;7.08;100.00;100515.41;5034308;28;20029;-67
2022/12/02 03:00:10;;;;;;;36.75;15.02;;;;;;;6.97;100.00;100506.69;5034011;28;20032;-68
2022/12/02 03:02:36;;;;;;;37.67;16.05;;;;;;;7.06;100.00;100521.59;5026204;28;20030;-67
2022/12/02 03:05:02;;;;;;;38.17;15.80;;;;;;;7.05;100.00;100525.16;5033678;28;20024;-67
2022/12/02 03:07:28;;;;;;;34.35;15.38;;;;;;;7.00;100.00;100522.53;5034187;28;20117;-68
2022/12/02 03:09:54;;;;;;;35.40;15.50;;;;;;;7.04;100.00;100524.25;5034136;28;20025;-67
2022/12/02 03:12:20;;;;;;;36.50;14.13;;;;;;;6.92;100.00;100505.88;5022043;28;20041;-68
2022/12/02 03:14:45;;;;;;;40.85;15.82;;;;;;;6.91;100.00;100506.75;5014167;28;20034;-68
2022/12/02 03:17:11;;;;;;;31.45;12.02;;;;;;;6.86;100.00;100495.34;5014203;28;20547;-68
2022/12/02 03:19:37;;;;;;;40.67;14.88;;;;;;;6.76;99.75;100475.19;5013876;28;20029;-68
2022/12/02 03:22:03;;;;;;;31.17;14.13;;;;;;;7.03;100.00;100519.88;5016279;28;20026;-67
2022/12/02 03:24:31;;;;;;;33.17;13.48;;;;;;;6.84;100.00;100489.19;5013936;28;20039;-67
2022/12/02 03:26:59;;;;;;;41.90;14.82;;;;;;;6.99;100.00;100512.84;5016322;28;20033;-67
2022/12/02 03:29:26;;;;;;;33.17;13.85;;;;;;;7.01;100.00;100513.72;5013572;28;20160;-68
2022/12/02 03:31:51;;;;;;;30.60;14.30;;;;;;;6.95;100.00;100497.03;5024397;28;20563;-67
2022/12/02 03:34:17;;;;;;;37.30;14.70;;;;;;;7.04;100.00;100521.63;5019237;28;20108;-68
2022/12/02 03:36:43;;;;;;;30.60;13.38;;;;;;;6.93;100.00;100523.50;5013793;28;20025;-68
2022/12/02 03:39:09;;;;;;;33.88;14.00;;;;;;;7.06;100.00;100524.25;5013648;28;20468;-68
2022/12/02 03:41:35;;;;;;;40.83;15.40;;;;;;;7.00;100.00;100519.88;5015957;28;20441;-68
2022/12/02 03:44:01;;;;;;;35.25;15.20;;;;;;;6.99;100.00;100510.19;5013695;28;20040;-68
2022/12/02 03:46:28;;;;;;;37.10;15.35;;;;;;;7.08;100.00;100515.41;5021245;28;20030;-68
2022/12/02 03:48:55;;;;;;;35.92;14.80;;;;;;;6.98;100.00;100510.22;5013267;28;20032;-68
2022/12/02 03:51:20;;;;;;;35.60;13.93;;;;;;;7.08;100.00;100510.13;5013240;28;20033;-68
2022/12/02 03:53:46;;;;;;;36.13;13.60;;;;;;;7.02;100.00;100506.66;5015590;28;20053;-67
2022/12/02 03:56:12;;;;;;;38.13;14.88;;;;;;;7.03;100.00;100514.59;5013336;28;20032;-68
2022/12/02 03:58:45;;;;;;;38.72;13.80;;;;;;;6.99;100.00;100510.19;5015263;28;20068;-68
2022/12/02 04:01:11;;;;;;;35.50;14.68;;;;;;;6.99;100.00;100502.28;5013323;28;20029;-68
2022/12/02 04:03:36;;;;;;;36.95;14.85;;;;;;;7.05;100.00;100515.41;5018081;28;20053;-68
2022/12/02 04:06:02;;;;;;;35.30;14.98;;;;;;;7.04;100.00;100508.38;5031218;28;20025;-68
2022/12/02 04:08:28;;;;;;;36.88;14.95;;;;;;;7.02;100.00;100502.22;5032701;28;20052;-68
2022/12/02 04:10:54;;;;;;;32.75;14.18;;;;;;;7.05;100.00;100499.53;5020320;28;20069;-68
2022/12/02 04:13:19;;;;;;;40.13;13.68;;;;;;;6.99;100.00;100496.97;5013147;28;20029;-68
2022/12/02 04:15:44;;;;;;;37.45;15.30;;;;;;;6.98;100.00;100492.59;5012946;28;20125;-68
2022/12/02 04:18:10;;;;;;;38.47;18.08;;;;;;;6.98;100.00;100499.66;5012715;28;20034;-68
2022/12/02 04:20:35;;;;;;;45.38;15.45;;;;;;;6.97;100.00;100488.19;5026997;28;20034;-68
2022/12/02 04:23:01;;;;;;;40.45;16.27;;;;;;;6.88;100.00;100472.44;5032748;28;20036;-68
2022/12/02 04:25:26;;;;;;;38.78;13.25;;;;;;;7.02;100.00;100482.88;5023814;28;20040;-68
2022/12/02 04:27:51;;;;;;;38.20;16.40;;;;;;;6.93;100.00;100467.97;5012434;28;20034;-68
2022/12/02 04:30:17;;;;;;;39.83;15.40;;;;;;;6.99;100.00;100482.88;5014912;28;20026;-68
2022/12/02 04:32:42;;;;;;;57.42;16.48;;;;;;;6.92;100.00;100465.34;5015836;28;20088;-68
2022/12/02 04:35:08;;;;;;;40.67;15.52;;;;;;;7.00;100.00;100480.22;5032415;28;20026;-68
2022/12/02 04:37:34;;;;;;;35.13;14.05;;;;;;;6.91;100.00;100456.53;5027469;28;20041;-68
2022/12/02 04:39:59;;;;;;;35.40;13.60;;;;;;;6.99;100.00;100470.53;5032338;28;20021;-68
2022/12/02 04:42:24;;;;;;;37.38;14.73;;;;;;;7.00;100.00;100469.63;5029231;28;20036;-68
2022/12/02 04:44:50;;;;;;;38.53;14.52;;;;;;;6.89;100.00;100453.00;5026727;28;20481;-68
2022/12/02 04:47:15;;;;;;;38.50;16.52;;;;;;;6.93;100.00;100465.31;5031916;28;20046;-68
2022/12/02 04:49:41;;;;;;;42.45;16.13;;;;;;;6.95;100.00;100460.91;5021536;28;20037;-68
2022/12/02 04:52:06;;;;;;;38.65;16.50;;;;;;;6.88;100.00;100448.63;5012356;28;20117;-68
2022/12/02 04:54:32;;;;;;;42.45;14.82;;;;;;;6.94;100.00;100458.25;5014580;28;20033;-68
2022/12/02 04:56:57;;;;;;;39.13;13.73;;;;;;;6.87;100.00;100451.28;5024049;28;20022;-68
2022/12/02 04:59:22;;;;;;;38.92;14.95;;;;;;;6.89;100.00;100449.47;5027935;28;20360;-68
2022/12/02 05:01:48;;;;;;;36.30;16.40;;;;;;;6.89;100.00;100452.13;5012624;28;20029;-68
2022/12/02 05:04:14;;;;;;;40.67;16.00;;;;;;;6.91;100.00;100453.88;5025854;28;20055;-68
2022/12/02 05:06:39;;;;;;;40.75;15.20;;;;;;;6.90;100.00;100446.84;5026655;28;20042;-67
2022/12/02 05:09:05;;;;;;;28.83;13.25;;;;;;;6.83;100.00;100445.16;5014390;28;20389;-68
2022/12/02 05:11:30;;;;;;;40.10;14.45;;;;;;;6.83;100.00;100445.16;5011998;28;20117;-69
2022/12/02 05:13:55;;;;;;;33.75;14.70;;;;;;;6.79;100.00;100438.13;5011947;28;20247;-66
2022/12/02 05:16:21;;;;;;;39.78;16.45;;;;;;;6.89;100.00;100450.38;5013594;28;20481;-66
2022/12/02 05:18:46;;;;;;;38.78;15.63;;;;;;;6.72;100.00;100428.53;5011826;28;20038;-69
2022/12/02 05:21:12;;;;;;;36.72;15.20;;;;;;;6.85;100.00;100453.97;5017190;28;20025;-68
2022/12/02 05:23:37;;;;;;;42.17;15.35;;;;;;;6.89;100.00;100447.72;5011641;28;20026;-68
2022/12/02 05:26:03;;;;;;;32.78;13.38;;;;;;;6.90;100.00;100449.50;5011641;28;20033;-66
2022/12/02 05:28:28;;;;;;;39.05;15.05;;;;;;;6.80;100.00;100439.91;5010418;28;20045;-66
2022/12/02 05:30:53;;;;;;;48.88;17.17;;;;;;;6.83;100.00;100453.09;5023142;28;20033;-66
2022/12/02 05:33:19;;;;;;;41.90;16.42;;;;;;;6.86;100.00;100442.47;5031102;28;20029;-66
2022/12/02 05:35:44;;;;;;;34.95;15.90;;;;;;;6.87;100.00;100453.94;5028099;28;20087;-66
2022/12/02 05:38:10;;;;;;;39.08;14.70;;;;;;;6.81;100.00;100448.69;5011650;28;20440;-67
2022/12/02 05:40:35;;;;;;;41.72;16.30;;;;;;;6.72;100.00;100439.13;5019354;28;20041;-66
2022/12/02 05:43:30;;;;;;;45.03;16.55;;;;;;;6.76;100.00;100456.69;5017655;28;20472;-66
2022/12/02 05:45:58;;;;;;;39.80;14.93;;;;;;;6.78;100.00;100441.69;5011207;28;20049;-67
2022/12/02 05:48:24;;;;;;;37.60;16.30;;;;;;;6.78;100.00;100444.34;5013789;28;20056;-66
2022/12/02 05:50:52;;;;;;;37.35;15.00;;;;;;;6.82;100.00;100451.31;5026404;28;20025;-67
2022/12/02 05:53:23;;;;;;;36.78;14.13;;;;;;;6.74;100.00;100453.16;5010937;28;20104;-67
2022/12/02 05:55:53;;;;;;;41.78;14.98;;;;;;;6.82;100.00;100453.13;5024461;28;20120;-66
2022/12/02 05:58:19;;;;;;;31.02;13.65;;;;;;;6.82;100.00;100438.09;5029581;28;20035;-67
2022/12/02 06:00:53;;;;;;;37.63;15.57;;;;;;;6.88;100.00;100443.34;5027499;28;20537;-66
2022/12/02 06:03:20;;;;;;;39.08;13.48;;;;;;;6.89;100.00;100444.19;5030513;28;20045;-67
2022/12/02 06:05:47;;;;;;;37.30;15.05;;;;;;;6.90;100.00;100445.97;5030980;28;20033;-67
2022/12/02 06:08:42;;;;;;;38.90;14.48;;;;;;;6.86;100.00;100445.13;5030895;28;20544;-67
2022/12/02 06:11:25;;;;;;;38.92;15.75;;;;;;;6.83;100.00;100445.16;5025932;28;20417;-66
2022/12/02 06:13:51;;;;;;;38.10;13.50;;;;;;;6.90;100.00;100452.16;5030828;28;20110;-67
2022/12/02 06:16:23;;;;;;;47.05;17.20;;;;;;;6.92;100.00;100445.03;5015161;28;20072;-67
2022/12/02 06:18:48;;;;;;;41.13;18.35;;;;;;;6.95;100.00;100446.78;5011215;28;20069;-67
2022/12/02 06:21:17;;;;;;;33.25;13.63;;;;;;;6.94;100.00;100445.03;5013327;28;20181;-66
2022/12/02 06:23:46;;;;;;;36.85;15.15;;;;;;;6.93;100.00;100441.53;5011020;28;20026;-66
2022/12/02 06:26:17;;;;;;;43.47;15.73;;;;;;;6.91;100.00;100440.66;5010911;28;20428;-67
2022/12/02 06:28:44;;;;;;;40.38;15.02;;;;;;;6.91;100.00;100434.50;5029997;28;20432;-67
2022/12/02 06:31:19;;;;;;;34.95;14.05;;;;;;;6.92;100.00;100437.13;5030600;28;20075;-66
2022/12/02 06:33:47;;;;;;;40.47;15.70;;;;;;;6.92;100.00;100434.47;5020193;28;20080;-67
2022/12/02 06:36:24;;;;;;;40.88;17.08;;;;;;;6.86;100.00;100412.50;5011144;28;20447;-67
2022/12/02 06:38:59;;;;;;;34.20;13.93;;;;;;;6.89;100.00;100423.94;5011935;28;20057;-68
2022/12/02 06:41:29;;;;;;;35.67;14.43;;;;;;;6.84;100.00;100431.03;5015317;28;20034;-67
2022/12/02 06:46:44;;;;;;;43.78;17.00;;;;;;;6.81;100.00;100417.84;5015501;28;20040;-67
2022/12/02 06:49:20;;;;;;;33.35;14.63;;;;;;;6.89;100.00;100428.34;5021161;28;20033;-67
2022/12/02 06:51:47;;;;;;;40.00;16.48;;;;;;;6.85;100.00;100440.75;5021318;28;20100;-67
2022/12/02 06:54:19;;;;;;;42.70;16.98;;;;;;;6.81;100.00;100435.47;5036534;28;20088;-67
2022/12/02 06:56:47;;;;;;;35.65;15.18;;;;;;;6.79;100.00;100426.72;5009232;28;20691;-67
2022/12/02 06:59:17;;;;;;;37.28;15.70;;;;;;;6.85;100.00;100431.91;5010249;28;20505;-67
2022/12/02 07:01:43;;;;;;;42.05;15.18;;;;;;;6.86;100.00;100441.59;5018657;28;20127;-67
2022/12/02 07:04:09;;;;;;;39.72;16.40;;;;;;;6.84;100.00;100435.47;5022624;28;20124;-67
2022/12/02 07:06:48;;;;;;;36.92;14.85;;;;;;;6.79;100.00;100435.50;5028255;28;20058;-67
2022/12/02 07:09:18;;;;;;;34.88;13.23;;;;;;;6.84;100.00;100430.19;5023309;28;20036;-67
2022/12/02 07:11:49;;;;;;;33.95;13.68;;;;;;;6.82;100.00;100432.81;5019111;28;20025;-67
2022/12/02 07:14:52;;;;;;;38.45;14.68;;;;;;;6.87;100.00;100435.44;5023977;28;20029;-67
2022/12/02 07:17:21;;;;;;;37.83;13.88;;;;;;;6.88;100.00;100435.41;5024376;28;20519;-67
2022/12/02 07:19:53;;;;;;;34.25;12.80;;;;;;;6.85;100.00;100432.81;5022385;28;20046;-67
2022/12/02 07:22:22;;;;;;;35.78;15.20;;;;;;;6.82;100.00;100421.38;5022227;28;20234;-67
2022/12/02 07:25:09;;;;;;;37.00;14.27;;;;;;;6.92;100.00;100426.53;5028336;28;20771;-67
2022/12/02 07:27:40;;;;;;;30.65;13.13;;;;;;;6.95;100.00;100433.56;5023531;28;20030;-67
2022/12/02 07:30:33;;;;;;;32.92;14.50;;;;;;;6.96;100.00;100436.19;5016166;28;20859;-68
2022/12/02 07:32:59;;;;;;;38.22;13.57;;;;;;;6.97;100.00;100432.66;5015044;28;20025;-67
2022/12/02 07:35:24;;;;;;;38.75;14.25;;;;;;;6.94;100.00;100432.69;5029838;28;20037;-67
2022/12/02 07:37:50;;;;;;;36.72;14.57;;;;;;;6.89;100.00;100434.50;5026545;28;20457;-67
2022/12/02 07:40:16;;;;;;;31.42;14.60;;;;;;;6.80;100.00;100416.13;5027131;28;20083;-67
2022/12/02 07:42:42;;;;;;;31.00;13.52;;;;;;;6.92;100.00;100437.13;5031382;28;20052;-67
2022/12/02 07:45:10;;;;;;;33.30;12.25;;;;;;;6.94;100.00;100434.44;5025201;28;20555;-67
2022/12/02 07:47:36;;;;;;;39.90;14.02;;;;;;;6.97;100.00;100427.34;5031078;28;20029;-67
2022/12/02 07:50:02;;;;;;;35.08;14.57;;;;;;;6.92;100.00;100423.88;5031576;28;20029;-67
2022/12/02 07:52:28;;;;;;;31.60;14.32;;;;;;;6.88;100.00;100411.63;5012511;28;20497;-67
2022/12/02 07:54:53;;;;;;;33.72;13.70;;;;;;;7.01;100.00;100434.38;5027471;28;20059;-67
2022/12/02 07:57:20;;;;;;;33.35;13.35;;;;;;;6.99;100.00;100430.88;5026726;28;20070;-67
2022/12/02 07:59:45;;;;;;;29.42;12.20;;;;;;;7.00;100.00;100427.31;5027749;28;20040;-67
2022/12/02 08:02:11;;;;;;;30.58;12.82;;;;;;;6.87;100.00;100420.41;5013569;28;20034;-67
2022/12/02 08:04:36;;;;;;;35.97;13.45;;;;;;;6.87;100.00;100411.63;5023894;28;20120;-67
2022/12/02 08:07:02;;;;;;;36.67;15.57;;;;;;;6.98;100.00;100426.47;5013179;28;20033;-67
2022/12/02 08:09:27;;;;;;;34.20;13.95;;;;;;;7.01;100.00;100423.81;5020881;28;20038;-67
2022/12/02 08:11:53;;;;;;;31.77;11.80;;;;;;;6.86;100.00;100410.75;5010427;28;20022;-68
2022/12/02 08:14:18;;;;;;;35.63;13.80;;;;;;;6.92;100.00;100423.88;5011529;28;20474;-67
2022/12/02 08:16:44;;;;;;;30.20;13.93;;;;;;;6.95;100.00;100425.63;5025075;28;20481;-67
2022/12/02 08:19:09;;;;;;;39.45;15.32;;;;;;;6.93;100.00;100420.38;5030298;28;20041;-67
2022/12/02 08:21:35;;;;;;;35.47;14.52;;;;;;;6.90;100.00;100414.25;5031466;28;20021;-67
2022/12/02 08:24:00;;;;;;;34.22;13.70;;;;;;;6.87;100.00;100399.28;5018026;28;20521;-67
2022/12/02 08:26:26;;;;;;;38.58;13.13;;;;;;;7.02;100.00;100420.25;5025973;28;20115;-67
2022/12/02 08:28:52;;;;;;;30.88;12.35;;;;;;;7.04;100.00;100407.88;5012536;28;20034;-67
2022/12/02 08:31:17;;;;;;;37.35;13.63;;;;;;;6.98;100.00;100407.09;5020896;28;20044;-67
2022/12/02 08:33:43;;;;;;;35.10;13.88;;;;;;;7.01;100.00;100410.56;5018362;28;20056;-67
2022/12/02 08:36:08;;;;;;;35.60;14.32;;;;;;;7.05;100.00;100411.41;5030464;28;20033;-67
2022/12/02 08:38:34;;;;;;;31.27;12.50;;;;;;;7.06;100.00;100407.88;5023500;28;20473;-67
2022/12/02 08:40:59;;;;;;;33.55;13.48;;;;;;;7.06;100.00;100410.50;5013622;28;20393;-67
2022/12/02 08:43:25;;;;;;;33.75;13.90;;;;;;;7.06;100.00;100400.81;5017876;28;20021;-68
2022/12/02 08:45:51;;;;;;;38.30;14.90;;;;;;;7.09;100.00;100407.81;5020786;28;20393;-67
2022/12/02 08:48:16;;;;;;;33.13;12.02;;;;;;;6.95;100.00;100376.28;5013767;28;20033;-68
2022/12/02 08:50:42;;;;;;;32.88;12.80;;;;;;;7.13;100.00;100397.22;5018789;28;20034;-67
2022/12/02 08:53:07;;;;;;;33.38;12.40;;;;;;;7.16;100.00;100391.88;5018366;28;20025;-67
2022/12/02 08:55:33;;;;;;;33.47;13.75;;;;;;;7.24;100.00;100397.94;5030364;28;20040;-67
2022/12/02 08:57:59;;;;;;;35.20;13.35;;;;;;;7.13;100.00;100380.47;5022100;28;20053;-67
2022/12/02 09:00:24;;;;;;;33.03;12.48;;;;;;;7.21;100.00;100392.69;5015942;28;20025;-67
2022/12/02 09:02:50;;;;;;;27.92;12.35;;;;;;;7.15;100.00;100384.81;5024297;28;20042;-67
2022/12/02 09:05:16;;;;;;;29.70;13.38;;;;;;;7.21;100.00;100384.75;5022834;28;20034;-67
2022/12/02 09:07:41;;;;;;;31.42;12.18;;;;;;;7.24;100.00;100382.06;5019464;28;20159;-67
2022/12/02 09:10:09;;;;;;;29.70;13.77;;;;;;;7.36;100.00;100397.78;5029232;28;20028;-67
2022/12/02 09:12:34;;;;;;;30.20;12.63;;;;;;;7.22;100.00;100381.19;5025301;28;20537;-67
2022/12/02 09:15:00;;;;;;;36.85;13.52;;;;;;;7.32;100.00;100397.81;5011839;28;20030;-67
2022/12/02 09:17:25;;;;;;;34.95;14.32;;;;;;;7.23;100.00;100382.94;5016781;28;20095;-67
2022/12/02 09:19:51;;;;;;;34.65;13.63;;;;;;;7.31;100.00;100396.97;5026986;28;20424;-67
2022/12/02 09:22:16;;;;;;;33.35;12.75;;;;;;;7.36;100.00;100400.44;5018144;28;20037;-67
2022/12/02 09:24:42;;;;;;;37.42;13.90;;;;;;;7.31;100.00;100378.44;5023678;28;20037;-67
2022/12/02 09:27:07;;;;;;;32.42;12.48;;;;;;;7.38;100.00;100397.75;5027643;28;20426;-67
2022/12/02 09:29:33;;;;;;;35.58;13.07;;;;;;;7.33;100.00;100386.38;5026282;28;20069;-67
2022/12/02 09:31:59;;;;;;;35.17;13.00;;;;;;;7.41;100.00;100390.63;5016527;28;20401;-67
2022/12/02 09:34:24;;;;;;;35.03;14.10;;;;;;;7.50;100.00;100398.44;5026693;28;20036;-67
2022/12/02 09:36:50;;;;;;;34.42;13.80;;;;;;;7.54;100.00;100405.47;5014423;28;20030;-67
2022/12/02 09:39:15;;;;;;;35.28;13.55;;;;;;;7.46;100.00;100377.34;5022954;28;20033;-67
2022/12/02 09:41:41;;;;;;;29.35;12.27;;;;;;;7.57;99.83;100405.41;5013373;28;20025;-67
2022/12/02 09:44:06;;;;;;;40.13;13.10;;;;;;;7.55;100.00;100401.91;5025795;28;20124;-67
2022/12/02 09:46:32;;;;;;;37.22;14.73;;;;;;;7.65;100.00;100392.06;5022157;28;20470;-67
2022/12/02 09:48:57;;;;;;;38.70;13.75;;;;;;;7.70;99.95;100396.41;5024765;28;20059;-67
2022/12/02 09:51:23;;;;;;;37.42;13.68;;;;;;;7.74;99.64;100384.84;5022908;28;20037;-67
2022/12/02 09:53:49;;;;;;;35.17;14.98;;;;;;;7.70;99.10;100369.91;5016621;28;20057;-67
2022/12/02 09:56:17;;;;;;;36.05;14.25;;;;;;;7.65;98.72;100369.13;5017705;28;20457;-67
2022/12/02 09:58:46;;;;;;;43.30;13.98;;;;;;;7.72;98.56;100389.31;5020517;28;20073;-67
2022/12/02 10:01:12;;;;;;;32.47;13.02;;;;;;;7.72;98.82;100378.72;5015201;28;20498;-67
2022/12/02 10:03:38;;;;;;;35.28;11.93;;;;;;;7.76;98.54;100380.41;5017981;28;20050;-67
2022/12/02 10:06:07;;;;;;;38.80;13.50;;;;;;;7.84;98.53;100378.50;5023007;28;20762;-67
2022/12/02 10:08:33;;;;;;;34.55;14.43;;;;;;;7.84;98.00;100383.81;5015435;28;20488;-67
2022/12/02 10:10:59;;;;;;;34.58;13.60;;;;;;;7.83;97.82;100392.66;5010021;28;20030;-67
2022/12/02 10:13:26;;;;;;;35.03;13.23;;;;;;;7.68;98.02;100355.81;5024442;28;20031;-67
2022/12/02 10:15:52;;;;;;;41.05;13.75;;;;;;;7.81;98.27;100378.56;5030798;28;20460;-67
2022/12/02 10:18:19;;;;;;;34.00;13.07;;;;;;;7.80;98.04;100386.53;5022503;28;20130;-67
2022/12/02 10:20:45;;;;;;;36.38;14.13;;;;;;;7.79;97.81;100374.22;5018643;28;20051;-67
2022/12/02 10:23:20;;;;;;;38.05;14.93;;;;;;;7.75;97.57;100376.03;5024056;28;20053;-67
2022/12/02 10:26:07;;;;;;;43.28;15.05;;;;;;;7.67;97.90;100363.78;5010389;28;20427;-67
2022/12/02 10:28:35;;;;;;;36.10;13.32;;;;;;;7.68;97.62;100363.78;5019879;28;20052;-67
2022/12/02 10:31:10;;;;;;;34.30;13.93;;;;;;;7.66;98.15;100365.56;5026941;28;20029;-67
2022/12/02 10:34:09;;;;;;;39.63;14.65;;;;;;;7.68;98.49;100365.53;5029501;28;20095;-67
2022/12/02 10:36:37;;;;;;;40.47;13.20;;;;;;;7.75;98.79;100356.59;5001355;28;20042;-67
2022/12/02 10:39:24;;;;;;;40.92;14.20;;;;;;;7.77;98.61;100353.06;5028541;28;20025;-67
2022/12/02 10:42:08;;;;;;;35.25;14.35;;;;;;;7.75;99.22;100351.31;5021182;28;20104;-67
2022/12/02 10:44:41;;;;;;;38.45;14.35;;;;;;;7.75;98.65;100352.19;5026636;28;20033;-67
2022/12/02 10:47:18;;;;;;;38.72;14.35;;;;;;;7.72;98.18;100352.25;5032090;28;20036;-67
2022/12/02 10:49:57;;;;;;;34.10;13.10;;;;;;;7.69;98.48;100344.31;5023646;28;20164;-67
2022/12/02 10:52:27;;;;;;;32.53;13.20;;;;;;;7.59;98.53;100329.50;5016651;28;20096;-67
2022/12/02 10:54:55;;;;;;;34.97;12.65;;;;;;;7.68;98.90;100341.72;5026594;28;20692;-67
2022/12/02 10:57:29;;;;;;;35.58;14.95;;;;;;;7.69;98.90;100340.81;5017629;28;20499;-67
2022/12/02 10:59:57;;;;;;;34.10;14.68;;;;;;;7.47;99.25;100324.41;5014313;28;20037;-67
2022/12/02 11:02:33;;;;;;;30.75;13.27;;;;;;;7.55;99.47;100340.16;5016144;28;20107;-67
2022/12/02 11:05:12;;;;;;;31.35;14.60;;;;;;;7.54;99.76;100331.34;5032606;28;20045;-67
2022/12/02 11:07:38;;;;;;;33.90;14.68;;;;;;;7.65;99.48;100333.81;5030081;28;20052;-68
2022/12/02 11:10:04;;;;;;;37.55;13.07;;;;;;;7.53;99.82;100316.34;5025372;28;20393;-67
2022/12/02 11:12:36;;;;;;;36.72;15.32;;;;;;;7.54;99.52;100331.34;5033795;28;20025;-68
2022/12/02 11:15:24;;;;;;;30.27;11.95;;;;;;;7.35;100.00;100314.00;5024277;28;20029;-67
2022/12/02 11:17:51;;;;;;;38.60;15.85;;;;;;;7.44;100.00;100323.56;5023919;28;20033;-67
2022/12/02 11:20:37;;;;;;;30.98;13.48;;;;;;;7.51;100.00;100326.09;5033785;28;20033;-67